createdAt,value
2023-04-15T00:01:59.892Z,85.20
2023-04-15T00:04:28.399Z,81.94
2023-04-15T00:06:55.980Z,82.21
2023-04-15T00:09:23.916Z,83.78
2023-04-15T00:11:52.173Z,88.60
2023-04-15T00:14:21.041Z,90.23
2023-04-15T00:16:50.049Z,88.07
2023-04-15T00:19:17.553Z,88.35
2023-04-15T00:21:45.072Z,83.95
2023-04-15T00:24:12.675Z,86.52
2023-04-15T00:26:40.540Z,83.86
2023-04-15T00:29:08.172Z,83.49
2023-04-15T00:31:36.934Z,83.82
2023-04-15T00:34:04.680Z,87.27
2023-04-15T00:36:33.786Z,83.93
2023-04-15T00:39:01.552Z,82.52
2023-04-15T00:41:29.698Z,85.36
2023-04-15T00:43:57.203Z,83.46
2023-04-15T00:46:25.952Z,81.42
2023-04-15T00:48:55.398Z,80.73
2023-04-15T00:51:23.364Z,81.94
2023-04-15T00:53:51.871Z,84.54
2023-04-15T00:56:21.750Z,86.24
2023-04-15T00:58:49.268Z,86.70
2023-04-15T01:01:16.972Z,88.42
2023-04-15T01:03:44.984Z,88.27
2023-04-15T01:06:14.962Z,86.00
2023-04-15T01:08:42.469Z,87.96
2023-04-15T01:11:11.531Z,85.50
2023-04-15T01:13:39.298Z,85.03
2023-04-15T01:16:08.636Z,88.34
2023-04-15T01:18:38.574Z,88.65
2023-04-15T01:21:06.919Z,85.61
2023-04-15T01:23:38.585Z,87.61
2023-04-15T01:26:09.230Z,88.15
2023-04-15T01:28:37.273Z,86.73
2023-04-15T01:31:09.545Z,90.34
2023-04-15T01:33:37.467Z,88.87
2023-04-15T01:36:06.095Z,91.58
2023-04-15T01:38:34.156Z,93.01
2023-04-15T01:41:02.011Z,93.10
2023-04-15T01:43:30.831Z,93.30
2023-04-15T01:45:58.221Z,93.49
2023-04-15T01:48:26.048Z,93.04
2023-04-15T01:50:57.444Z,92.46
2023-04-15T01:53:25.702Z,93.09
2023-04-15T01:55:53.613Z,93.32
2023-04-15T01:58:22.450Z,92.80
2023-04-15T02:00:51.433Z,92.65
2023-04-15T02:03:19.068Z,93.19
2023-04-15T02:05:46.604Z,92.68
2023-04-15T02:08:14.443Z,91.23
2023-04-15T02:10:41.976Z,91.85
2023-04-15T02:13:09.424Z,92.34
2023-04-15T02:15:37.062Z,92.65
2023-04-15T02:18:06.648Z,94.62
2023-04-15T02:20:35.012Z,94.52
2023-04-15T02:23:03.016Z,94.09
2023-04-15T02:25:30.527Z,93.75
2023-04-15T02:27:58.677Z,93.72
2023-04-15T02:30:27.148Z,91.33
2023-04-15T02:32:54.762Z,90.94
2023-04-15T02:35:25.716Z,90.91
2023-04-15T02:37:53.217Z,91.80
2023-04-15T02:40:20.816Z,92.81
2023-04-15T02:42:48.366Z,90.72
2023-04-15T02:45:16.103Z,91.08
2023-04-15T02:47:44.365Z,87.29
2023-04-15T02:50:13.133Z,87.51
2023-04-15T02:52:42.562Z,88.64
2023-04-15T02:55:10.507Z,89.31
2023-04-15T02:57:39.115Z,89.96
2023-04-15T03:00:09.574Z,92.66
2023-04-15T03:02:38.392Z,91.29
2023-04-15T03:05:07.248Z,91.67
2023-04-15T03:07:34.723Z,92.50
2023-04-15T03:10:03.592Z,91.72
2023-04-15T03:12:31.026Z,92.99
2023-04-15T03:14:58.596Z,92.72
2023-04-15T03:17:26.148Z,93.84
2023-04-15T03:19:53.610Z,94.00
2023-04-15T03:22:21.308Z,92.06
2023-04-15T03:24:48.804Z,93.28
2023-04-15T03:27:17.734Z,93.66
2023-04-15T03:29:45.162Z,93.03
2023-04-15T03:32:12.807Z,94.01
2023-04-15T03:34:40.256Z,95.37
2023-04-15T03:37:07.788Z,93.68
2023-04-15T03:39:35.648Z,93.66
2023-04-15T03:42:03.692Z,94.00
2023-04-15T03:44:32.746Z,94.33
2023-04-15T03:47:00.326Z,94.48
2023-04-15T03:49:27.807Z,95.22
2023-04-15T03:51:55.693Z,94.80
2023-04-15T03:54:23.183Z,94.11
2023-04-15T03:56:50.726Z,94.82
2023-04-15T03:59:18.217Z,95.86
2023-04-15T04:01:47.277Z,96.19
2023-04-15T04:04:15.024Z,96.29
2023-04-15T04:06:42.662Z,95.50
2023-04-15T04:09:10.457Z,95.18
2023-04-15T04:11:38.532Z,95.48
2023-04-15T04:14:06.078Z,96.03
2023-04-15T04:16:33.593Z,95.15
2023-04-15T04:19:03.019Z,93.06
2023-04-15T04:21:31.211Z,94.26
2023-04-15T04:23:58.928Z,93.92
2023-04-15T04:26:29.185Z,94.94
2023-04-15T04:28:56.632Z,94.58
2023-04-15T04:31:24.218Z,94.98
2023-04-15T04:33:51.748Z,94.38
2023-04-15T04:36:20.665Z,95.72
2023-04-15T04:38:48.137Z,94.59
2023-04-15T04:41:16.297Z,94.27
2023-04-15T04:43:43.771Z,94.62
2023-04-15T04:46:11.953Z,94.88
2023-04-15T04:48:39.577Z,94.56
2023-04-15T04:51:07.658Z,94.78
2023-04-15T04:53:37.352Z,94.37
2023-04-15T04:56:05.313Z,94.96
2023-04-15T04:58:32.809Z,95.14
2023-04-15T05:01:00.394Z,94.76
2023-04-15T05:03:28.403Z,94.65
2023-04-15T05:05:55.957Z,95.50
2023-04-15T05:08:23.409Z,95.36
2023-04-15T05:10:52.186Z,95.33
2023-04-15T05:13:21.495Z,96.35
2023-04-15T05:15:48.964Z,95.13
2023-04-15T05:18:16.498Z,95.29
2023-04-15T05:20:44.088Z,95.45
2023-04-15T05:23:11.567Z,94.78
2023-04-15T05:25:39.037Z,94.72
2023-04-15T05:28:08.011Z,95.34
2023-04-15T05:30:35.532Z,95.64
2023-04-15T05:33:03.055Z,95.63
2023-04-15T05:35:30.803Z,95.22
2023-04-15T05:37:58.318Z,94.75
2023-04-15T05:40:25.870Z,93.64
2023-04-15T05:42:53.323Z,94.37
2023-04-15T05:45:22.322Z,94.84
2023-04-15T05:47:50.853Z,94.63
2023-04-15T05:50:18.533Z,94.62
2023-04-15T05:52:46.210Z,94.80
2023-04-15T05:55:14.234Z,94.84
2023-04-15T05:57:41.677Z,93.83
2023-04-15T06:00:10.176Z,93.68
2023-04-15T06:02:39.239Z,94.00
2023-04-15T06:05:09.829Z,93.94
2023-04-15T06:07:37.633Z,94.01
2023-04-15T06:10:05.839Z,94.46
2023-04-15T06:12:33.370Z,93.39
2023-04-15T06:15:00.831Z,93.08
2023-04-15T06:17:28.355Z,92.27
2023-04-15T06:19:57.190Z,92.66
2023-04-15T06:22:24.849Z,92.77
2023-04-15T06:24:52.954Z,91.84
2023-04-15T06:27:20.685Z,92.05
2023-04-15T06:29:48.107Z,93.23
2023-04-15T06:32:15.561Z,91.96
2023-04-15T06:34:43.010Z,92.10
2023-04-15T06:37:16.004Z,91.72
2023-04-15T06:39:44.535Z,91.26
2023-04-15T06:42:12.342Z,90.75
2023-04-15T06:44:39.983Z,91.09
2023-04-15T06:47:07.504Z,90.55
2023-04-15T06:49:34.967Z,90.39
2023-04-15T06:52:02.743Z,90.29
2023-04-15T06:54:31.543Z,90.74
2023-04-15T06:56:59.191Z,89.99
2023-04-15T06:59:27.258Z,90.01
2023-04-15T07:01:54.823Z,90.32
2023-04-15T07:04:22.316Z,89.96
2023-04-15T07:06:49.921Z,89.86
2023-04-15T07:09:17.383Z,89.06
2023-04-15T07:11:46.257Z,89.58
2023-04-15T07:14:13.584Z,89.58
2023-04-15T07:16:40.929Z,89.34
2023-04-15T07:19:08.302Z,88.92
2023-04-15T07:21:35.719Z,88.94
2023-04-15T07:24:03.405Z,88.43
2023-04-15T07:26:30.847Z,88.22
2023-04-15T07:28:59.860Z,87.70
2023-04-15T07:31:27.784Z,87.20
2023-04-15T07:33:55.328Z,86.49
2023-04-15T07:36:23.218Z,86.46
2023-04-15T07:38:50.676Z,86.47
2023-04-15T07:41:18.458Z,85.12
2023-04-15T07:43:45.955Z,84.61
2023-04-15T07:46:14.782Z,83.64
2023-04-15T07:48:42.625Z,83.76
2023-04-15T07:51:10.786Z,82.92
2023-04-15T07:53:38.531Z,83.15
2023-04-15T07:56:06.965Z,82.38
2023-04-15T07:58:34.414Z,82.78
2023-04-15T08:01:01.992Z,82.61
2023-04-15T08:03:30.875Z,82.25
2023-04-15T08:05:58.681Z,81.42
2023-04-15T08:08:26.284Z,81.42
2023-04-15T08:10:53.841Z,81.83
2023-04-15T08:13:21.700Z,81.34
2023-04-15T08:16:19.178Z,81.43
2023-04-15T08:18:48.567Z,81.92
2023-04-15T08:21:16.624Z,81.46
2023-04-15T08:23:44.637Z,81.23
2023-04-15T08:26:12.761Z,80.96
2023-04-15T08:28:42.025Z,81.27
2023-04-15T08:31:09.687Z,82.22
2023-04-15T08:33:37.321Z,82.96
2023-04-15T08:36:07.454Z,83.50
2023-04-15T08:38:35.054Z,84.89
2023-04-15T08:41:08.237Z,87.04
2023-04-15T08:43:38.832Z,87.74
2023-04-15T08:46:06.976Z,87.46
2023-04-15T08:48:35.668Z,87.88
2023-04-15T08:51:03.628Z,88.37
2023-04-15T08:53:32.553Z,89.07
2023-04-15T08:56:05.088Z,88.89
2023-04-15T08:58:33.431Z,89.03
2023-04-15T09:01:01.501Z,88.88
2023-04-15T09:03:29.824Z,88.33
2023-04-15T09:05:58.395Z,88.00
2023-04-15T09:08:25.916Z,87.91
2023-04-15T09:10:54.838Z,87.77
2023-04-15T09:13:22.152Z,87.97
2023-04-15T09:15:50.085Z,87.40
2023-04-15T09:18:29.069Z,86.82
2023-04-15T09:20:56.939Z,85.76
2023-04-15T09:23:24.492Z,85.64
2023-04-15T09:25:51.956Z,84.81
2023-04-15T09:28:27.250Z,84.19
2023-04-15T09:30:57.535Z,83.46
2023-04-15T09:33:26.161Z,82.62
2023-04-15T09:36:01.747Z,83.04
2023-04-15T09:38:29.568Z,81.79
2023-04-15T09:40:57.089Z,81.62
2023-04-15T09:43:39.186Z,82.12
2023-04-15T09:46:06.843Z,82.26
2023-04-15T09:48:34.411Z,81.54
2023-04-15T09:51:02.928Z,81.40
2023-04-15T09:53:31.893Z,81.89
2023-04-15T09:56:02.278Z,81.30
2023-04-15T09:58:33.529Z,81.94
2023-04-15T10:01:02.391Z,82.23
2023-04-15T10:03:31.064Z,82.63
2023-04-15T10:06:00.246Z,85.08
2023-04-15T10:08:30.013Z,85.67
2023-04-15T10:10:57.970Z,86.31
2023-04-15T10:13:28.375Z,85.06
2023-04-15T10:16:00.380Z,84.96
2023-04-15T10:18:29.148Z,85.94
2023-04-15T10:20:56.908Z,86.89
2023-04-15T10:23:25.629Z,87.37
2023-04-15T10:25:54.638Z,87.21
2023-04-15T10:28:23.485Z,89.64
2023-04-15T10:30:51.012Z,89.41
2023-04-15T10:33:22.769Z,89.67
2023-04-15T10:35:51.651Z,90.56
2023-04-15T10:38:36.308Z,91.09
2023-04-15T10:41:20.123Z,89.70
2023-04-15T10:43:52.752Z,90.18
2023-04-15T10:46:23.065Z,89.21
2023-04-15T10:48:53.092Z,87.97
2023-04-15T10:51:31.849Z,90.00
2023-04-15T10:54:01.005Z,90.20
2023-04-15T10:56:29.968Z,89.83
2023-04-15T10:59:00.178Z,87.34
2023-04-15T11:01:52.788Z,88.54
2023-04-15T11:08:03.038Z,86.71
2023-04-15T11:11:33.810Z,87.61
2023-04-15T11:14:43.292Z,86.51
2023-04-15T11:21:32.942Z,87.09
2023-04-15T11:25:33.384Z,86.66
2023-04-15T11:35:51.165Z,87.35
2023-04-15T11:42:14.845Z,86.54
2023-04-15T11:45:22.380Z,86.91
2023-04-15T11:52:00.292Z,86.43
2023-04-15T12:10:20.876Z,85.17
2023-04-15T12:13:18.947Z,85.12
2023-04-15T12:16:19.641Z,84.74
2023-04-15T12:22:48.634Z,85.19
2023-04-15T12:29:43.468Z,85.09
2023-04-15T12:32:43.432Z,84.83
2023-04-15T12:36:29.793Z,84.71
2023-04-15T12:40:17.463Z,85.48
2023-04-15T12:43:15.156Z,85.19
2023-04-15T12:46:34.308Z,85.80
2023-04-15T12:50:06.665Z,86.02
2023-04-15T12:53:13.909Z,86.02
2023-04-15T12:56:28.079Z,85.98
2023-04-15T13:05:33.345Z,85.92
2023-04-15T13:08:40.438Z,86.40
2023-04-15T13:18:06.845Z,85.75
2023-04-15T13:24:47.878Z,87.34
2023-04-15T13:27:46.076Z,87.12
2023-04-15T13:31:03.227Z,86.89
2023-04-15T13:37:22.286Z,87.43
2023-04-15T13:46:36.258Z,88.58
2023-04-15T13:49:41.347Z,87.60
2023-04-15T13:52:56.114Z,87.92
2023-04-15T13:56:05.670Z,87.95
2023-04-15T13:59:18.073Z,87.66
2023-04-15T14:02:32.974Z,88.41
2023-04-15T14:05:31.663Z,88.98
2023-04-15T14:09:00.525Z,89.26
2023-04-15T14:12:09.751Z,88.86
2023-04-15T14:15:03.913Z,89.93
2023-04-15T14:17:55.282Z,90.42
2023-04-15T14:21:07.753Z,90.28
2023-04-15T14:27:21.170Z,90.16
2023-04-15T14:30:27.334Z,88.82
2023-04-15T14:33:51.227Z,89.47
2023-04-15T14:44:02.172Z,91.14
2023-04-15T14:47:27.043Z,90.65
2023-04-15T14:59:51.817Z,92.49
2023-04-15T15:03:20.841Z,92.62
2023-04-15T15:13:35.317Z,94.85
2023-04-15T15:19:37.278Z,95.46
2023-04-15T15:26:17.343Z,96.16
2023-04-15T15:28:51.634Z,95.54
2023-04-15T15:31:19.161Z,96.32
2023-04-15T15:33:46.711Z,95.93
2023-04-15T15:36:15.735Z,97.43
2023-04-15T15:38:56.211Z,98.03
2023-04-15T15:41:23.916Z,98.60
2023-04-15T15:43:51.409Z,98.27
2023-04-15T15:46:19.110Z,98.83
2023-04-15T15:48:46.718Z,97.71
2023-04-15T15:51:22.052Z,100.00
2023-04-15T15:57:12.032Z,100.00
2023-04-15T15:59:41.183Z,100.00
2023-04-15T16:02:13.054Z,100.00
2023-04-15T16:04:56.696Z,100.00
2023-04-15T16:07:28.395Z,100.00
2023-04-15T16:10:22.951Z,100.00
2023-04-15T16:12:50.557Z,100.00
2023-04-15T16:15:18.071Z,100.00
2023-04-15T16:17:45.785Z,100.00
2023-04-15T16:20:13.345Z,100.00
2023-04-15T16:22:42.195Z,100.00
2023-04-15T16:25:10.529Z,100.00
2023-04-15T16:27:50.348Z,100.00
2023-04-15T16:30:25.086Z,100.00
2023-04-15T16:32:53.072Z,100.00
2023-04-15T16:35:20.957Z,100.00
2023-04-15T16:37:49.799Z,100.00
2023-04-15T16:40:17.549Z,100.00
2023-04-15T16:42:45.324Z,100.00
2023-04-15T16:45:12.851Z,100.00
2023-04-15T16:47:40.454Z,100.00
2023-04-15T16:50:11.541Z,100.00
2023-04-15T16:52:38.988Z,100.00
2023-04-15T16:55:08.326Z,100.00
2023-04-15T16:57:53.090Z,100.00
2023-04-15T17:00:23.805Z,100.00
2023-04-15T17:02:51.600Z,100.00
2023-04-15T17:05:19.438Z,100.00
2023-04-15T17:07:46.942Z,100.00
2023-04-15T17:10:16.214Z,100.00
2023-04-15T17:12:43.782Z,100.00
2023-04-15T17:15:11.404Z,100.00
2023-04-15T17:17:39.015Z,100.00
2023-04-15T17:20:07.703Z,100.00
2023-04-15T17:22:35.242Z,100.00
2023-04-15T17:25:03.111Z,100.00
2023-04-15T17:27:32.179Z,100.00
2023-04-15T17:29:59.675Z,100.00
2023-04-15T17:32:31.541Z,100.00
2023-04-15T17:34:59.288Z,100.00
2023-04-15T17:37:26.859Z,100.00
2023-04-15T17:39:54.361Z,100.00
2023-04-15T17:42:22.891Z,100.00
2023-04-15T17:44:51.732Z,100.00
2023-04-15T17:47:19.223Z,100.00
2023-04-15T17:49:47.185Z,100.00
2023-04-15T17:52:14.775Z,100.00
2023-04-15T17:54:42.240Z,100.00
2023-04-15T17:57:10.176Z,100.00
2023-04-15T17:59:37.816Z,100.00
2023-04-15T18:02:06.746Z,100.00
2023-04-15T18:04:34.406Z,100.00
2023-04-15T18:07:01.990Z,100.00
2023-04-15T18:09:31.790Z,100.00
2023-04-15T18:11:59.249Z,100.00
2023-04-15T18:14:34.212Z,100.00
2023-04-15T18:17:02.923Z,100.00
2023-04-15T18:19:32.025Z,100.00
2023-04-15T18:22:00.835Z,100.00
2023-04-15T18:24:28.570Z,100.00
2023-04-15T18:26:56.311Z,100.00
2023-04-15T18:29:23.941Z,100.00
2023-04-15T18:31:51.533Z,100.00
2023-04-15T18:34:19.115Z,100.00
2023-04-15T18:36:48.053Z,100.00
2023-04-15T18:39:16.865Z,100.00
2023-04-15T18:41:44.181Z,100.00
2023-04-15T18:44:11.630Z,100.00
2023-04-15T18:46:39.154Z,100.00
2023-04-15T18:49:07.187Z,100.00
2023-04-15T18:51:34.959Z,100.00
2023-04-15T18:54:03.798Z,100.00
2023-04-15T18:56:31.589Z,100.00
2023-04-15T18:59:25.405Z,100.00
2023-04-15T19:01:46.797Z,100.00
2023-04-15T19:04:14.636Z,100.00
2023-04-15T19:06:42.240Z,100.00
2023-04-15T19:09:11.209Z,100.00
2023-04-15T19:11:38.980Z,100.00
2023-04-15T19:14:06.578Z,100.00
2023-04-15T19:16:34.167Z,100.00
2023-04-15T19:19:01.834Z,100.00
2023-04-15T19:21:32.577Z,100.00
2023-04-15T19:24:01.148Z,100.00
2023-04-15T19:26:30.098Z,100.00
2023-04-15T19:28:58.841Z,100.00
2023-04-15T19:31:26.491Z,100.00
2023-04-15T19:33:54.000Z,100.00
2023-04-15T19:36:21.739Z,100.00
2023-04-15T19:38:49.200Z,100.00
2023-04-15T19:41:16.784Z,100.00
2023-04-15T19:43:45.752Z,100.00
2023-04-15T19:46:13.680Z,100.00
2023-04-15T19:48:41.225Z,100.00
2023-04-15T19:51:08.733Z,100.00
2023-04-15T19:53:36.447Z,100.00
2023-04-15T19:56:04.209Z,100.00
2023-04-15T19:58:32.445Z,100.00
2023-04-15T20:01:02.217Z,100.00
2023-04-15T20:03:30.147Z,100.00
2023-04-15T20:05:57.953Z,100.00
2023-04-15T20:08:25.449Z,100.00
2023-04-15T20:10:53.174Z,100.00
2023-04-15T20:13:20.637Z,100.00
2023-04-15T20:15:48.092Z,100.00
2023-04-15T20:18:16.995Z,100.00
2023-04-15T20:20:44.717Z,100.00
2023-04-15T20:23:12.338Z,100.00
2023-04-15T20:25:39.885Z,100.00
2023-04-15T20:28:07.422Z,100.00
2023-04-15T20:30:35.353Z,100.00
2023-04-15T20:33:02.946Z,100.00
2023-04-15T20:35:34.752Z,100.00
2023-04-15T20:38:02.658Z,100.00
2023-04-15T20:40:30.253Z,100.00
2023-04-15T20:42:57.816Z,100.00
2023-04-15T20:45:25.375Z,100.00
2023-04-15T20:47:54.607Z,100.00
2023-04-15T20:50:22.269Z,100.00
2023-04-15T20:52:51.114Z,100.00
2023-04-15T20:55:18.483Z,100.00
2023-04-15T20:57:46.359Z,100.00
2023-04-15T21:00:14.182Z,100.00
2023-04-15T21:02:41.878Z,100.00
2023-04-15T21:05:09.870Z,100.00
2023-04-15T21:07:37.323Z,100.00
2023-04-15T21:10:07.286Z,100.00
2023-04-15T21:12:34.734Z,100.00
2023-04-15T21:15:02.237Z,100.00
2023-04-15T21:17:29.922Z,100.00
2023-04-15T21:19:57.558Z,100.00
2023-04-15T21:22:25.160Z,100.00
2023-04-15T21:24:52.771Z,100.00
2023-04-15T21:27:21.761Z,100.00
2023-04-15T21:29:49.249Z,100.00
2023-04-15T21:32:17.011Z,100.00
2023-04-15T21:34:44.749Z,100.00
2023-04-15T21:37:12.289Z,100.00
2023-04-15T21:39:39.797Z,100.00
2023-04-15T21:42:07.333Z,100.00
2023-04-15T21:44:36.161Z,100.00
2023-04-15T21:47:03.504Z,100.00
2023-04-15T21:49:31.854Z,100.00
2023-04-15T21:52:00.966Z,100.00
2023-04-15T21:54:28.849Z,100.00
2023-04-15T21:56:56.914Z,100.00
2023-04-15T21:59:24.577Z,100.00
2023-04-15T22:01:53.596Z,100.00
2023-04-15T22:04:21.357Z,100.00
2023-04-15T22:06:48.935Z,100.00
2023-04-15T22:09:16.563Z,100.00
2023-04-15T22:11:44.373Z,100.00
2023-04-15T22:14:12.133Z,100.00
2023-04-15T22:16:39.591Z,100.00
2023-04-15T22:19:08.923Z,100.00
2023-04-15T22:21:36.473Z,100.00
2023-04-15T22:24:33.751Z,100.00
2023-04-15T22:26:51.584Z,100.00
2023-04-15T22:29:19.056Z,100.00
2023-04-15T22:31:46.777Z,100.00
2023-04-15T22:34:21.048Z,100.00
2023-04-15T22:36:48.612Z,100.00
2023-04-15T22:39:16.615Z,100.00
2023-04-15T22:41:44.766Z,100.00
2023-04-15T22:44:12.779Z,100.00
2023-04-15T22:46:40.620Z,100.00
2023-04-15T22:49:09.448Z,100.00
2023-04-15T22:51:38.309Z,100.00
2023-04-15T22:54:05.758Z,100.00
2023-04-15T22:56:33.271Z,100.00
2023-04-15T22:59:00.779Z,100.00
2023-04-15T23:01:28.328Z,100.00
2023-04-15T23:04:05.175Z,100.00
2023-04-15T23:06:34.015Z,100.00
2023-04-15T23:09:02.975Z,100.00
2023-04-15T23:11:30.522Z,100.00
2023-04-15T23:13:58.199Z,100.00
2023-04-15T23:16:25.946Z,100.00
2023-04-15T23:18:53.445Z,100.00
2023-04-15T23:21:20.999Z,100.00
2023-04-15T23:23:48.466Z,100.00
2023-04-15T23:26:17.290Z,100.00
2023-04-15T23:28:44.652Z,100.00
2023-04-15T23:31:13.528Z,100.00
2023-04-15T23:33:41.069Z,100.00
2023-04-15T23:36:08.679Z,100.00
2023-04-15T23:38:36.168Z,100.00
2023-04-15T23:41:03.654Z,100.00
2023-04-15T23:43:32.493Z,100.00
2023-04-15T23:46:00.020Z,100.00
2023-04-15T23:48:27.488Z,100.00
2023-04-15T23:50:54.922Z,100.00
2023-04-15T23:53:22.512Z,100.00
2023-04-15T23:55:50.064Z,100.00
2023-04-15T23:58:17.506Z,100.00
